sensor_id;sensor_type;location;lat;lon;timestamp;P1;durP1;ratioP1;P2;durP2;ratioP2
58302;SDS011;44109;52.398;7.024;2024-02-16T00:00:26;6.88;;;3.85;;
58302;SDS011;44109;52.398;7.024;2024-02-16T00:02:54;6.85;;;3.72;;
58302;SDS011;44109;52.398;7.024;2024-02-16T00:05:22;5.60;;;3.80;;
58302;SDS011;44109;52.398;7.024;2024-02-16T00:07:49;7.38;;;4.13;;
58302;SDS011;44109;52.398;7.024;2024-02-16T00:10:19;6.82;;;3.75;;
58302;SDS011;44109;52.398;7.024;2024-02-16T00:12:47;5.28;;;4.07;;
58302;SDS011;44109;52.398;7.024;2024-02-16T00:15:15;5.63;;;3.75;;
58302;SDS011;44109;52.398;7.024;2024-02-16T00:17:45;5.72;;;3.88;;
58302;SDS011;44109;52.398;7.024;2024-02-16T00:20:14;5.03;;;4.15;;
58302;SDS011;44109;52.398;7.024;2024-02-16T00:22:42;6.72;;;3.38;;
58302;SDS011;44109;52.398;7.024;2024-02-16T00:25:11;6.00;;;3.90;;
58302;SDS011;44109;52.398;7.024;2024-02-16T00:27:40;7.00;;;4.15;;
58302;SDS011;44109;52.398;7.024;2024-02-16T00:30:08;7.43;;;4.35;;
58302;SDS011;44109;52.398;7.024;2024-02-16T00:32:37;6.53;;;4.00;;
58302;SDS011;44109;52.398;7.024;2024-02-16T00:35:05;7.28;;;3.85;;
58302;SDS011;44109;52.398;7.024;2024-02-16T00:37:33;5.25;;;3.55;;
58302;SDS011;44109;52.398;7.024;2024-02-16T00:40:00;7.15;;;3.20;;
58302;SDS011;44109;52.398;7.024;2024-02-16T00:42:28;6.72;;;4.18;;
58302;SDS011;44109;52.398;7.024;2024-02-16T00:44:58;7.53;;;4.35;;
58302;SDS011;44109;52.398;7.024;2024-02-16T00:47:26;7.68;;;4.10;;
58302;SDS011;44109;52.398;7.024;2024-02-16T00:49:54;6.45;;;4.47;;
58302;SDS011;44109;52.398;7.024;2024-02-16T00:52:22;6.97;;;4.15;;
58302;SDS011;44109;52.398;7.024;2024-02-16T00:54:52;8.75;;;4.40;;
58302;SDS011;44109;52.398;7.024;2024-02-16T00:57:20;7.18;;;3.88;;
58302;SDS011;44109;52.398;7.024;2024-02-16T00:59:48;6.88;;;3.97;;
58302;SDS011;44109;52.398;7.024;2024-02-16T01:02:17;7.68;;;4.38;;
58302;SDS011;44109;52.398;7.024;2024-02-16T01:04:45;6.00;;;4.22;;
58302;SDS011;44109;52.398;7.024;2024-02-16T01:07:14;7.15;;;4.60;;
58302;SDS011;44109;52.398;7.024;2024-02-16T01:09:44;7.18;;;4.53;;
58302;SDS011;44109;52.398;7.024;2024-02-16T01:12:19;6.18;;;4.35;;
58302;SDS011;44109;52.398;7.024;2024-02-16T01:14:47;11.65;;;5.07;;
58302;SDS011;44109;52.398;7.024;2024-02-16T01:17:15;9.77;;;4.57;;
58302;SDS011;44109;52.398;7.024;2024-02-16T01:19:44;7.85;;;4.45;;
58302;SDS011;44109;52.398;7.024;2024-02-16T01:22:12;9.88;;;4.60;;
58302;SDS011;44109;52.398;7.024;2024-02-16T01:24:40;4.90;;;3.58;;
58302;SDS011;44109;52.398;7.024;2024-02-16T01:27:08;8.95;;;4.43;;
58302;SDS011;44109;52.398;7.024;2024-02-16T01:29:36;6.88;;;4.28;;
58302;SDS011;44109;52.398;7.024;2024-02-16T01:32:04;5.82;;;4.30;;
58302;SDS011;44109;52.398;7.024;2024-02-16T01:34:33;6.60;;;4.40;;
58302;SDS011;44109;52.398;7.024;2024-02-16T01:37:02;7.32;;;4.43;;
58302;SDS011;44109;52.398;7.024;2024-02-16T01:39:30;7.22;;;4.22;;
58302;SDS011;44109;52.398;7.024;2024-02-16T01:41:58;7.07;;;4.35;;
58302;SDS011;44109;52.398;7.024;2024-02-16T01:44:27;7.05;;;4.25;;
58302;SDS011;44109;52.398;7.024;2024-02-16T01:46:54;5.60;;;3.70;;
58302;SDS011;44109;52.398;7.024;2024-02-16T01:49:22;8.32;;;4.72;;
58302;SDS011;44109;52.398;7.024;2024-02-16T01:51:51;5.25;;;3.67;;
58302;SDS011;44109;52.398;7.024;2024-02-16T01:54:19;6.43;;;3.88;;
58302;SDS011;44109;52.398;7.024;2024-02-16T01:56:46;4.97;;;3.15;;
58302;SDS011;44109;52.398;7.024;2024-02-16T01:59:16;4.82;;;3.42;;
58302;SDS011;44109;52.398;7.024;2024-02-16T02:01:44;7.57;;;3.85;;
58302;SDS011;44109;52.398;7.024;2024-02-16T02:04:12;5.65;;;3.63;;
58302;SDS011;44109;52.398;7.024;2024-02-16T02:06:40;6.13;;;3.90;;
58302;SDS011;44109;52.398;7.024;2024-02-16T02:09:09;7.35;;;3.85;;
58302;SDS011;44109;52.398;7.024;2024-02-16T02:11:37;7.35;;;3.88;;
58302;SDS011;44109;52.398;7.024;2024-02-16T02:14:04;5.68;;;3.35;;
58302;SDS011;44109;52.398;7.024;2024-02-16T02:16:32;7.25;;;3.50;;
58302;SDS011;44109;52.398;7.024;2024-02-16T02:19:00;5.35;;;3.63;;
58302;SDS011;44109;52.398;7.024;2024-02-16T02:21:27;4.80;;;3.15;;
58302;SDS011;44109;52.398;7.024;2024-02-16T02:23:56;6.38;;;3.50;;
58302;SDS011;44109;52.398;7.024;2024-02-16T02:26:24;6.20;;;3.65;;
58302;SDS011;44109;52.398;7.024;2024-02-16T02:28:52;8.77;;;3.85;;
58302;SDS011;44109;52.398;7.024;2024-02-16T02:31:20;5.68;;;3.30;;
58302;SDS011;44109;52.398;7.024;2024-02-16T02:33:50;6.75;;;3.70;;
58302;SDS011;44109;52.398;7.024;2024-02-16T02:36:24;9.00;;;3.50;;
58302;SDS011;44109;52.398;7.024;2024-02-16T02:38:52;6.25;;;3.38;;
58302;SDS011;44109;52.398;7.024;2024-02-16T02:41:22;5.43;;;3.50;;
58302;SDS011;44109;52.398;7.024;2024-02-16T02:43:52;5.53;;;3.42;;
58302;SDS011;44109;52.398;7.024;2024-02-16T02:46:22;6.15;;;3.28;;
58302;SDS011;44109;52.398;7.024;2024-02-16T02:48:53;5.65;;;3.50;;
58302;SDS011;44109;52.398;7.024;2024-02-16T02:51:23;5.65;;;3.22;;
58302;SDS011;44109;52.398;7.024;2024-02-16T02:53:53;6.15;;;3.17;;
58302;SDS011;44109;52.398;7.024;2024-02-16T02:56:23;4.30;;;3.30;;
58302;SDS011;44109;52.398;7.024;2024-02-16T02:58:53;6.15;;;3.47;;
58302;SDS011;44109;52.398;7.024;2024-02-16T03:01:24;6.28;;;3.58;;
58302;SDS011;44109;52.398;7.024;2024-02-16T03:03:59;6.07;;;3.10;;
58302;SDS011;44109;52.398;7.024;2024-02-16T03:06:28;5.53;;;3.60;;
58302;SDS011;44109;52.398;7.024;2024-02-16T03:08:58;4.97;;;2.97;;
58302;SDS011;44109;52.398;7.024;2024-02-16T03:11:28;5.40;;;2.97;;
58302;SDS011;44109;52.398;7.024;2024-02-16T03:13:57;4.97;;;3.30;;
58302;SDS011;44109;52.398;7.024;2024-02-16T03:16:26;7.25;;;3.97;;
58302;SDS011;44109;52.398;7.024;2024-02-16T03:18:58;4.75;;;3.15;;
58302;SDS011;44109;52.398;7.024;2024-02-16T03:21:27;6.32;;;3.50;;
58302;SDS011;44109;52.398;7.024;2024-02-16T03:23:55;6.68;;;3.60;;
58302;SDS011;44109;52.398;7.024;2024-02-16T03:26:24;6.95;;;3.53;;
58302;SDS011;44109;52.398;7.024;2024-02-16T03:28:53;7.82;;;3.60;;
58302;SDS011;44109;52.398;7.024;2024-02-16T03:31:22;9.50;;;3.78;;
58302;SDS011;44109;52.398;7.024;2024-02-16T03:33:51;5.93;;;3.92;;
58302;SDS011;44109;52.398;7.024;2024-02-16T03:36:19;6.05;;;3.25;;
58302;SDS011;44109;52.398;7.024;2024-02-16T03:38:48;5.90;;;3.38;;
58302;SDS011;44109;52.398;7.024;2024-02-16T03:41:18;7.85;;;3.80;;
58302;SDS011;44109;52.398;7.024;2024-02-16T03:43:47;6.40;;;3.17;;
58302;SDS011;44109;52.398;7.024;2024-02-16T03:46:16;6.35;;;3.30;;
58302;SDS011;44109;52.398;7.024;2024-02-16T03:48:44;5.97;;;3.33;;
58302;SDS011;44109;52.398;7.024;2024-02-16T03:51:12;6.32;;;3.17;;
58302;SDS011;44109;52.398;7.024;2024-02-16T03:53:39;6.70;;;3.35;;
58302;SDS011;44109;52.398;7.024;2024-02-16T03:56:07;4.47;;;3.15;;
58302;SDS011;44109;52.398;7.024;2024-02-16T03:58:35;5.78;;;3.05;;
58302;SDS011;44109;52.398;7.024;2024-02-16T04:01:03;3.45;;;2.78;;
58302;SDS011;44109;52.398;7.024;2024-02-16T04:03:34;4.90;;;3.00;;
58302;SDS011;44109;52.398;7.024;2024-02-16T04:06:01;4.45;;;3.58;;
58302;SDS011;44109;52.398;7.024;2024-02-16T04:08:30;5.25;;;3.05;;
58302;SDS011;44109;52.398;7.024;2024-02-16T04:10:58;5.85;;;3.88;;
58302;SDS011;44109;52.398;7.024;2024-02-16T04:13:25;5.13;;;3.47;;
58302;SDS011;44109;52.398;7.024;2024-02-16T04:15:53;4.93;;;3.17;;
58302;SDS011;44109;52.398;7.024;2024-02-16T04:18:20;7.57;;;3.83;;
58302;SDS011;44109;52.398;7.024;2024-02-16T04:20:49;5.28;;;3.13;;
58302;SDS011;44109;52.398;7.024;2024-02-16T04:23:17;6.97;;;3.20;;
58302;SDS011;44109;52.398;7.024;2024-02-16T04:25:45;6.88;;;3.72;;
58302;SDS011;44109;52.398;7.024;2024-02-16T04:28:14;5.75;;;3.10;;
58302;SDS011;44109;52.398;7.024;2024-02-16T04:30:44;5.25;;;3.88;;
58302;SDS011;44109;52.398;7.024;2024-02-16T04:33:14;4.95;;;3.03;;
58302;SDS011;44109;52.398;7.024;2024-02-16T04:35:42;8.13;;;3.13;;
58302;SDS011;44109;52.398;7.024;2024-02-16T04:38:18;6.00;;;3.33;;
58302;SDS011;44109;52.398;7.024;2024-02-16T04:40:47;6.63;;;3.25;;
58302;SDS011;44109;52.398;7.024;2024-02-16T04:43:16;4.55;;;2.90;;
58302;SDS011;44109;52.398;7.024;2024-02-16T04:45:46;4.93;;;3.25;;
58302;SDS011;44109;52.398;7.024;2024-02-16T04:48:15;4.68;;;3.05;;
58302;SDS011;44109;52.398;7.024;2024-02-16T04:50:45;3.90;;;3.38;;
58302;SDS011;44109;52.398;7.024;2024-02-16T04:53:12;5.35;;;2.95;;
58302;SDS011;44109;52.398;7.024;2024-02-16T04:55:41;5.20;;;3.30;;
58302;SDS011;44109;52.398;7.024;2024-02-16T04:58:09;6.03;;;3.33;;
58302;SDS011;44109;52.398;7.024;2024-02-16T05:00:37;5.68;;;3.13;;
58302;SDS011;44109;52.398;7.024;2024-02-16T05:03:05;5.25;;;3.10;;
58302;SDS011;44109;52.398;7.024;2024-02-16T05:05:33;4.55;;;3.15;;
58302;SDS011;44109;52.398;7.024;2024-02-16T05:08:01;6.60;;;4.00;;
58302;SDS011;44109;52.398;7.024;2024-02-16T05:10:28;4.97;;;3.75;;
58302;SDS011;44109;52.398;7.024;2024-02-16T05:12:57;4.90;;;3.20;;
58302;SDS011;44109;52.398;7.024;2024-02-16T05:15:25;4.55;;;3.17;;
58302;SDS011;44109;52.398;7.024;2024-02-16T05:17:53;9.10;;;3.60;;
58302;SDS011;44109;52.398;7.024;2024-02-16T05:20:21;6.53;;;3.53;;
58302;SDS011;44109;52.398;7.024;2024-02-16T05:22:49;4.15;;;3.13;;
58302;SDS011;44109;52.398;7.024;2024-02-16T05:25:17;5.55;;;3.53;;
58302;SDS011;44109;52.398;7.024;2024-02-16T05:27:46;6.70;;;3.85;;
58302;SDS011;44109;52.398;7.024;2024-02-16T05:30:15;7.38;;;3.35;;
58302;SDS011;44109;52.398;7.024;2024-02-16T05:32:45;7.50;;;3.88;;
58302;SDS011;44109;52.398;7.024;2024-02-16T05:35:14;4.32;;;2.95;;
58302;SDS011;44109;52.398;7.024;2024-02-16T05:37:42;7.28;;;3.55;;
58302;SDS011;44109;52.398;7.024;2024-02-16T05:40:13;6.82;;;3.38;;
58302;SDS011;44109;52.398;7.024;2024-02-16T05:42:50;5.07;;;3.08;;
58302;SDS011;44109;52.398;7.024;2024-02-16T05:45:20;7.70;;;3.85;;
58302;SDS011;44109;52.398;7.024;2024-02-16T05:47:48;6.18;;;3.72;;
58302;SDS011;44109;52.398;7.024;2024-02-16T05:50:17;9.80;;;3.97;;
58302;SDS011;44109;52.398;7.024;2024-02-16T05:53:01;6.15;;;3.88;;
58302;SDS011;44109;52.398;7.024;2024-02-16T05:55:28;6.05;;;3.70;;
58302;SDS011;44109;52.398;7.024;2024-02-16T05:57:56;4.72;;;3.78;;
58302;SDS011;44109;52.398;7.024;2024-02-16T06:00:25;6.20;;;4.00;;
58302;SDS011;44109;52.398;7.024;2024-02-16T06:02:53;4.70;;;3.67;;
58302;SDS011;44109;52.398;7.024;2024-02-16T06:05:21;6.50;;;3.72;;
58302;SDS011;44109;52.398;7.024;2024-02-16T06:07:48;7.43;;;3.60;;
58302;SDS011;44109;52.398;7.024;2024-02-16T06:10:16;7.15;;;3.70;;
58302;SDS011;44109;52.398;7.024;2024-02-16T06:12:44;7.03;;;4.15;;
58302;SDS011;44109;52.398;7.024;2024-02-16T06:15:11;5.60;;;3.33;;
58302;SDS011;44109;52.398;7.024;2024-02-16T06:17:42;6.05;;;3.92;;
58302;SDS011;44109;52.398;7.024;2024-02-16T06:20:09;7.63;;;3.67;;
58302;SDS011;44109;52.398;7.024;2024-02-16T06:22:37;6.10;;;4.00;;
58302;SDS011;44109;52.398;7.024;2024-02-16T06:25:05;6.40;;;3.22;;
58302;SDS011;44109;52.398;7.024;2024-02-16T06:27:34;5.03;;;3.22;;
58302;SDS011;44109;52.398;7.024;2024-02-16T06:30:01;7.53;;;3.88;;
58302;SDS011;44109;52.398;7.024;2024-02-16T06:32:30;4.95;;;3.72;;
58302;SDS011;44109;52.398;7.024;2024-02-16T06:34:59;5.57;;;3.25;;
58302;SDS011;44109;52.398;7.024;2024-02-16T06:37:27;8.50;;;4.00;;
58302;SDS011;44109;52.398;7.024;2024-02-16T06:39:54;5.45;;;3.33;;
58302;SDS011;44109;52.398;7.024;2024-02-16T06:42:22;4.50;;;3.00;;
58302;SDS011;44109;52.398;7.024;2024-02-16T06:44:50;6.70;;;3.80;;
58302;SDS011;44109;52.398;7.024;2024-02-16T06:47:17;4.90;;;3.20;;
58302;SDS011;44109;52.398;7.024;2024-02-16T06:49:46;5.72;;;3.30;;
58302;SDS011;44109;52.398;7.024;2024-02-16T06:52:15;6.55;;;3.40;;
58302;SDS011;44109;52.398;7.024;2024-02-16T06:54:42;5.47;;;3.63;;
58302;SDS011;44109;52.398;7.024;2024-02-16T06:57:10;5.38;;;3.53;;
58302;SDS011;44109;52.398;7.024;2024-02-16T06:59:42;4.03;;;2.95;;
58302;SDS011;44109;52.398;7.024;2024-02-16T07:02:10;5.72;;;3.78;;
58302;SDS011;44109;52.398;7.024;2024-02-16T07:04:39;6.78;;;3.70;;
58302;SDS011;44109;52.398;7.024;2024-02-16T07:07:07;4.93;;;3.63;;
58302;SDS011;44109;52.398;7.024;2024-02-16T07:09:36;7.15;;;3.50;;
58302;SDS011;44109;52.398;7.024;2024-02-16T07:12:05;5.22;;;3.40;;
58302;SDS011;44109;52.398;7.024;2024-02-16T07:14:34;5.72;;;3.42;;
58302;SDS011;44109;52.398;7.024;2024-02-16T07:17:02;6.47;;;3.45;;
58302;SDS011;44109;52.398;7.024;2024-02-16T07:19:35;7.03;;;3.72;;
58302;SDS011;44109;52.398;7.024;2024-02-16T07:22:03;3.38;;;2.78;;
58302;SDS011;44109;52.398;7.024;2024-02-16T07:24:34;7.68;;;3.42;;
58302;SDS011;44109;52.398;7.024;2024-02-16T07:27:05;6.95;;;3.30;;
58302;SDS011;44109;52.398;7.024;2024-02-16T07:29:35;4.97;;;2.63;;
58302;SDS011;44109;52.398;7.024;2024-02-16T07:32:05;8.07;;;4.00;;
58302;SDS011;44109;52.398;7.024;2024-02-16T07:34:36;4.93;;;3.05;;
58302;SDS011;44109;52.398;7.024;2024-02-16T07:37:06;8.60;;;3.00;;
58302;SDS011;44109;52.398;7.024;2024-02-16T07:39:39;6.57;;;3.70;;
58302;SDS011;44109;52.398;7.024;2024-02-16T07:42:09;6.47;;;3.10;;
58302;SDS011;44109;52.398;7.024;2024-02-16T07:44:39;5.43;;;3.63;;
58302;SDS011;44109;52.398;7.024;2024-02-16T07:47:11;6.15;;;3.50;;
58302;SDS011;44109;52.398;7.024;2024-02-16T07:49:40;8.00;;;4.30;;
58302;SDS011;44109;52.398;7.024;2024-02-16T07:52:10;5.20;;;3.30;;
58302;SDS011;44109;52.398;7.024;2024-02-16T07:54:40;7.05;;;4.05;;
58302;SDS011;44109;52.398;7.024;2024-02-16T07:57:12;7.97;;;3.88;;
58302;SDS011;44109;52.398;7.024;2024-02-16T07:59:40;6.22;;;3.95;;
58302;SDS011;44109;52.398;7.024;2024-02-16T08:02:08;5.53;;;3.60;;
58302;SDS011;44109;52.398;7.024;2024-02-16T08:04:41;6.27;;;3.63;;
58302;SDS011;44109;52.398;7.024;2024-02-16T08:07:08;7.25;;;3.85;;
58302;SDS011;44109;52.398;7.024;2024-02-16T08:09:36;6.32;;;3.97;;
58302;SDS011;44109;52.398;7.024;2024-02-16T08:12:05;5.22;;;3.47;;
58302;SDS011;44109;52.398;7.024;2024-02-16T08:14:33;6.05;;;4.10;;
58302;SDS011;44109;52.398;7.024;2024-02-16T08:17:01;9.00;;;4.03;;
58302;SDS011;44109;52.398;7.024;2024-02-16T08:19:32;8.73;;;4.72;;
58302;SDS011;44109;52.398;7.024;2024-02-16T08:22:00;7.80;;;4.18;;
58302;SDS011;44109;52.398;7.024;2024-02-16T08:24:29;6.30;;;3.47;;
58302;SDS011;44109;52.398;7.024;2024-02-16T08:26:58;5.03;;;3.42;;
58302;SDS011;44109;52.398;7.024;2024-02-16T08:29:27;7.95;;;4.18;;
58302;SDS011;44109;52.398;7.024;2024-02-16T08:31:55;5.43;;;3.75;;
58302;SDS011;44109;52.398;7.024;2024-02-16T08:34:23;7.00;;;4.55;;
58302;SDS011;44109;52.398;7.024;2024-02-16T08:36:51;6.60;;;3.80;;
58302;SDS011;44109;52.398;7.024;2024-02-16T08:39:19;6.68;;;3.72;;
58302;SDS011;44109;52.398;7.024;2024-02-16T08:41:50;5.40;;;3.38;;
58302;SDS011;44109;52.398;7.024;2024-02-16T08:44:18;8.00;;;4.60;;
58302;SDS011;44109;52.398;7.024;2024-02-16T08:46:47;11.05;;;4.35;;
58302;SDS011;44109;52.398;7.024;2024-02-16T08:49:16;9.25;;;4.40;;
58302;SDS011;44109;52.398;7.024;2024-02-16T08:51:44;6.75;;;4.05;;
58302;SDS011;44109;52.398;7.024;2024-02-16T08:54:11;7.30;;;4.03;;
58302;SDS011;44109;52.398;7.024;2024-02-16T08:56:39;8.63;;;4.57;;
58302;SDS011;44109;52.398;7.024;2024-02-16T08:59:06;7.25;;;4.03;;
58302;SDS011;44109;52.398;7.024;2024-02-16T09:01:35;6.35;;;4.25;;
58302;SDS011;44109;52.398;7.024;2024-02-16T09:04:06;8.25;;;4.32;;
58302;SDS011;44109;52.398;7.024;2024-02-16T09:06:34;11.18;;;5.13;;
58302;SDS011;44109;52.398;7.024;2024-02-16T09:09:02;10.60;;;5.15;;
58302;SDS011;44109;52.398;7.024;2024-02-16T09:11:30;9.27;;;4.20;;
58302;SDS011;44109;52.398;7.024;2024-02-16T09:13:58;10.57;;;3.90;;
58302;SDS011;44109;52.398;7.024;2024-02-16T09:16:25;6.72;;;3.83;;
58302;SDS011;44109;52.398;7.024;2024-02-16T09:18:53;7.18;;;3.92;;
58302;SDS011;44109;52.398;7.024;2024-02-16T09:21:22;6.65;;;4.40;;
58302;SDS011;44109;52.398;7.024;2024-02-16T09:23:52;5.75;;;3.75;;
58302;SDS011;44109;52.398;7.024;2024-02-16T09:26:24;8.55;;;4.30;;
58302;SDS011;44109;52.398;7.024;2024-02-16T09:28:56;8.45;;;4.75;;
58302;SDS011;44109;52.398;7.024;2024-02-16T09:31:24;8.40;;;3.70;;
58302;SDS011;44109;52.398;7.024;2024-02-16T09:33:52;6.15;;;3.70;;
58302;SDS011;44109;52.398;7.024;2024-02-16T09:36:19;9.75;;;4.43;;
58302;SDS011;44109;52.398;7.024;2024-02-16T09:38:49;6.88;;;3.90;;
58302;SDS011;44109;52.398;7.024;2024-02-16T09:41:16;6.85;;;4.68;;
58302;SDS011;44109;52.398;7.024;2024-02-16T09:43:44;6.70;;;4.32;;
58302;SDS011;44109;52.398;7.024;2024-02-16T09:46:12;7.78;;;4.47;;
58302;SDS011;44109;52.398;7.024;2024-02-16T09:48:42;8.40;;;4.18;;
58302;SDS011;44109;52.398;7.024;2024-02-16T09:51:14;6.20;;;4.35;;
58302;SDS011;44109;52.398;7.024;2024-02-16T09:53:43;7.47;;;4.28;;
58302;SDS011;44109;52.398;7.024;2024-02-16T09:56:19;9.00;;;4.65;;
58302;SDS011;44109;52.398;7.024;2024-02-16T09:58:47;6.35;;;4.15;;
58302;SDS011;44109;52.398;7.024;2024-02-16T10:01:17;7.80;;;4.25;;
58302;SDS011;44109;52.398;7.024;2024-02-16T10:03:47;6.50;;;4.35;;
58302;SDS011;44109;52.398;7.024;2024-02-16T10:06:15;7.25;;;4.75;;
58302;SDS011;44109;52.398;7.024;2024-02-16T10:08:46;6.65;;;4.85;;
58302;SDS011;44109;52.398;7.024;2024-02-16T10:11:16;5.90;;;4.50;;
58302;SDS011;44109;52.398;7.024;2024-02-16T10:13:56;7.30;;;4.82;;
58302;SDS011;44109;52.398;7.024;2024-02-16T10:16:24;6.47;;;4.65;;
58302;SDS011;44109;52.398;7.024;2024-02-16T10:18:54;9.27;;;5.28;;
58302;SDS011;44109;52.398;7.024;2024-02-16T10:21:26;8.23;;;4.78;;
58302;SDS011;44109;52.398;7.024;2024-02-16T10:23:56;6.97;;;5.07;;
58302;SDS011;44109;52.398;7.024;2024-02-16T10:26:27;11.73;;;6.07;;
58302;SDS011;44109;52.398;7.024;2024-02-16T10:28:56;10.02;;;5.22;;
58302;SDS011;44109;52.398;7.024;2024-02-16T10:31:25;8.65;;;4.85;;
58302;SDS011;44109;52.398;7.024;2024-02-16T10:33:57;5.70;;;4.03;;
58302;SDS011;44109;52.398;7.024;2024-02-16T10:36:27;7.70;;;5.22;;
58302;SDS011;44109;52.398;7.024;2024-02-16T10:38:58;9.85;;;5.95;;
58302;SDS011;44109;52.398;7.024;2024-02-16T10:41:33;8.00;;;4.93;;
58302;SDS011;44109;52.398;7.024;2024-02-16T10:44:08;9.68;;;6.03;;
58302;SDS011;44109;52.398;7.024;2024-02-16T10:46:36;8.07;;;4.45;;
58302;SDS011;44109;52.398;7.024;2024-02-16T10:49:05;7.05;;;4.57;;
58302;SDS011;44109;52.398;7.024;2024-02-16T10:51:34;8.48;;;4.70;;
58302;SDS011;44109;52.398;7.024;2024-02-16T10:54:07;8.82;;;5.63;;
58302;SDS011;44109;52.398;7.024;2024-02-16T10:56:38;10.13;;;6.05;;
58302;SDS011;44109;52.398;7.024;2024-02-16T10:59:08;10.90;;;5.05;;
58302;SDS011;44109;52.398;7.024;2024-02-16T11:01:37;10.32;;;5.18;;
58302;SDS011;44109;52.398;7.024;2024-02-16T11:04:06;9.20;;;5.30;;
58302;SDS011;44109;52.398;7.024;2024-02-16T11:06:45;9.55;;;5.57;;
58302;SDS011;44109;52.398;7.024;2024-02-16T11:09:23;9.60;;;5.18;;
58302;SDS011;44109;52.398;7.024;2024-02-16T11:11:59;9.68;;;5.97;;
58302;SDS011;44109;52.398;7.024;2024-02-16T11:14:35;10.48;;;6.00;;
58302;SDS011;44109;52.398;7.024;2024-02-16T11:17:07;7.57;;;5.03;;
58302;SDS011;44109;52.398;7.024;2024-02-16T11:19:36;9.88;;;6.03;;
58302;SDS011;44109;52.398;7.024;2024-02-16T11:22:05;14.98;;;6.55;;
58302;SDS011;44109;52.398;7.024;2024-02-16T11:24:35;8.55;;;6.28;;
58302;SDS011;44109;52.398;7.024;2024-02-16T11:27:05;8.10;;;6.07;;
58302;SDS011;44109;52.398;7.024;2024-02-16T11:29:34;8.98;;;6.10;;
58302;SDS011;44109;52.398;7.024;2024-02-16T11:32:04;9.70;;;6.40;;
58302;SDS011;44109;52.398;7.024;2024-02-16T11:34:34;12.18;;;7.13;;
58302;SDS011;44109;52.398;7.024;2024-02-16T11:37:04;10.45;;;6.65;;
58302;SDS011;44109;52.398;7.024;2024-02-16T11:39:32;10.18;;;5.97;;
58302;SDS011;44109;52.398;7.024;2024-02-16T11:42:05;9.32;;;6.38;;
58302;SDS011;44109;52.398;7.024;2024-02-16T11:44:36;11.30;;;7.10;;
58302;SDS011;44109;52.398;7.024;2024-02-16T11:47:07;9.57;;;6.25;;
58302;SDS011;44109;52.398;7.024;2024-02-16T11:49:38;9.35;;;6.35;;
58302;SDS011;44109;52.398;7.024;2024-02-16T11:52:07;14.32;;;7.13;;
58302;SDS011;44109;52.398;7.024;2024-02-16T11:54:35;11.07;;;7.93;;
58302;SDS011;44109;52.398;7.024;2024-02-16T11:57:04;11.30;;;6.40;;
58302;SDS011;44109;52.398;7.024;2024-02-16T11:59:33;14.27;;;8.15;;
58302;SDS011;44109;52.398;7.024;2024-02-16T12:02:01;13.57;;;8.00;;
58302;SDS011;44109;52.398;7.024;2024-02-16T12:04:29;13.55;;;9.57;;
58302;SDS011;44109;52.398;7.024;2024-02-16T12:06:59;16.83;;;10.85;;
58302;SDS011;44109;52.398;7.024;2024-02-16T12:09:30;15.07;;;9.82;;
58302;SDS011;44109;52.398;7.024;2024-02-16T12:12:00;17.83;;;11.80;;
58302;SDS011;44109;52.398;7.024;2024-02-16T12:14:29;13.23;;;9.90;;
58302;SDS011;44109;52.398;7.024;2024-02-16T12:16:57;13.88;;;11.10;;
58302;SDS011;44109;52.398;7.024;2024-02-16T12:19:26;12.45;;;9.23;;
58302;SDS011;44109;52.398;7.024;2024-02-16T12:21:54;13.15;;;9.88;;
58302;SDS011;44109;52.398;7.024;2024-02-16T12:24:23;16.23;;;11.23;;
58302;SDS011;44109;52.398;7.024;2024-02-16T12:26:52;18.80;;;10.77;;
58302;SDS011;44109;52.398;7.024;2024-02-16T12:29:20;15.93;;;11.57;;
58302;SDS011;44109;52.398;7.024;2024-02-16T12:31:50;13.88;;;10.15;;
58302;SDS011;44109;52.398;7.024;2024-02-16T12:34:17;19.58;;;13.25;;
58302;SDS011;44109;52.398;7.024;2024-02-16T12:36:45;18.83;;;10.45;;
58302;SDS011;44109;52.398;7.024;2024-02-16T12:39:12;18.98;;;12.00;;
58302;SDS011;44109;52.398;7.024;2024-02-16T12:41:41;14.57;;;11.85;;
58302;SDS011;44109;52.398;7.024;2024-02-16T12:44:09;13.50;;;11.63;;
58302;SDS011;44109;52.398;7.024;2024-02-16T12:46:37;19.50;;;13.60;;
58302;SDS011;44109;52.398;7.024;2024-02-16T12:49:06;15.73;;;11.95;;
58302;SDS011;44109;52.398;7.024;2024-02-16T12:51:34;15.32;;;11.02;;
58302;SDS011;44109;52.398;7.024;2024-02-16T12:54:02;20.30;;;11.27;;
58302;SDS011;44109;52.398;7.024;2024-02-16T12:56:30;19.98;;;13.63;;
58302;SDS011;44109;52.398;7.024;2024-02-16T12:58:58;17.55;;;12.82;;
58302;SDS011;44109;52.398;7.024;2024-02-16T13:01:27;16.20;;;12.05;;
58302;SDS011;44109;52.398;7.024;2024-02-16T13:03:55;16.00;;;12.90;;
58302;SDS011;44109;52.398;7.024;2024-02-16T13:06:24;23.73;;;15.57;;
58302;SDS011;44109;52.398;7.024;2024-02-16T13:08:51;19.52;;;12.93;;
58302;SDS011;44109;52.398;7.024;2024-02-16T13:11:19;16.38;;;12.25;;
58302;SDS011;44109;52.398;7.024;2024-02-16T13:13:47;16.85;;;13.18;;
58302;SDS011;44109;52.398;7.024;2024-02-16T13:16:14;18.45;;;13.63;;
58302;SDS011;44109;52.398;7.024;2024-02-16T13:18:42;14.65;;;10.63;;
58302;SDS011;44109;52.398;7.024;2024-02-16T13:21:10;19.02;;;15.13;;
58302;SDS011;44109;52.398;7.024;2024-02-16T13:23:39;18.02;;;13.77;;
58302;SDS011;44109;52.398;7.024;2024-02-16T13:26:06;18.75;;;13.90;;
58302;SDS011;44109;52.398;7.024;2024-02-16T13:28:35;16.73;;;12.10;;
58302;SDS011;44109;52.398;7.024;2024-02-16T13:31:03;18.80;;;12.93;;
58302;SDS011;44109;52.398;7.024;2024-02-16T13:33:31;20.42;;;13.98;;
58302;SDS011;44109;52.398;7.024;2024-02-16T13:35:58;13.90;;;10.77;;
58302;SDS011;44109;52.398;7.024;2024-02-16T13:38:26;13.30;;;11.13;;
58302;SDS011;44109;52.398;7.024;2024-02-16T13:40:55;15.13;;;11.90;;
58302;SDS011;44109;52.398;7.024;2024-02-16T13:43:23;17.23;;;13.27;;
58302;SDS011;44109;52.398;7.024;2024-02-16T13:45:51;14.68;;;11.55;;
58302;SDS011;44109;52.398;7.024;2024-02-16T13:48:20;16.73;;;14.38;;
58302;SDS011;44109;52.398;7.024;2024-02-16T13:50:48;12.65;;;9.73;;
58302;SDS011;44109;52.398;7.024;2024-02-16T13:53:16;15.35;;;11.38;;
58302;SDS011;44109;52.398;7.024;2024-02-16T13:55:44;14.95;;;11.18;;
58302;SDS011;44109;52.398;7.024;2024-02-16T13:58:13;13.05;;;10.77;;
58302;SDS011;44109;52.398;7.024;2024-02-16T14:00:41;15.20;;;13.25;;
58302;SDS011;44109;52.398;7.024;2024-02-16T14:03:09;15.65;;;13.45;;
58302;SDS011;44109;52.398;7.024;2024-02-16T14:05:40;10.75;;;9.32;;
58302;SDS011;44109;52.398;7.024;2024-02-16T14:08:11;15.13;;;11.85;;
58302;SDS011;44109;52.398;7.024;2024-02-16T14:10:41;12.30;;;9.73;;
58302;SDS011;44109;52.398;7.024;2024-02-16T14:13:09;13.85;;;11.57;;
58302;SDS011;44109;52.398;7.024;2024-02-16T14:15:38;10.88;;;9.75;;
58302;SDS011;44109;52.398;7.024;2024-02-16T14:18:06;10.52;;;8.93;;
58302;SDS011;44109;52.398;7.024;2024-02-16T14:20:34;11.48;;;10.07;;
58302;SDS011;44109;52.398;7.024;2024-02-16T14:23:01;8.05;;;7.25;;
58302;SDS011;44109;52.398;7.024;2024-02-16T14:25:29;8.48;;;7.57;;
58302;SDS011;44109;52.398;7.024;2024-02-16T14:27:57;10.18;;;9.13;;
58302;SDS011;44109;52.398;7.024;2024-02-16T14:30:25;10.27;;;5.93;;
58302;SDS011;44109;52.398;7.024;2024-02-16T14:32:55;9.13;;;7.43;;
58302;SDS011;44109;52.398;7.024;2024-02-16T14:35:22;7.43;;;6.40;;
58302;SDS011;44109;52.398;7.024;2024-02-16T14:37:50;7.75;;;5.70;;
58302;SDS011;44109;52.398;7.024;2024-02-16T14:40:17;5.47;;;4.90;;
58302;SDS011;44109;52.398;7.024;2024-02-16T14:42:46;7.00;;;5.20;;
58302;SDS011;44109;52.398;7.024;2024-02-16T14:45:14;5.85;;;4.65;;
58302;SDS011;44109;52.398;7.024;2024-02-16T14:47:46;5.95;;;4.68;;
58302;SDS011;44109;52.398;7.024;2024-02-16T14:50:16;5.75;;;4.30;;
58302;SDS011;44109;52.398;7.024;2024-02-16T14:52:44;5.10;;;4.25;;